createdAt,value
2019-04-22T00:00:28.892Z,10.2
2019-04-22T00:05:42.650Z,10.1
2019-04-22T00:10:46.529Z,9.9
2019-04-22T00:15:40.705Z,9.8
2019-04-22T00:20:49.967Z,9.7
2019-04-22T00:25:47.775Z,9.5
2019-04-22T00:30:46.785Z,9.4
2019-04-22T00:35:47.970Z,9.3
2019-04-22T00:40:58.958Z,9.2
2019-04-22T00:50:54.931Z,8.9
2019-04-22T00:55:45.588Z,8.8
2019-04-22T01:00:54.042Z,8.8
2019-04-22T01:05:46.405Z,8.6
2019-04-22T01:10:51.987Z,8.6
2019-04-22T01:15:46.804Z,8.5
2019-04-22T01:21:05.435Z,8.4
2019-04-22T01:25:44.748Z,8.3
2019-04-22T01:30:34.691Z,8.2
2019-04-22T01:35:35.693Z,8.1
2019-04-22T01:40:52.426Z,7.9
2019-04-22T01:45:52.803Z,7.9
2019-04-22T01:50:49.504Z,7.8
2019-04-22T01:55:49.557Z,7.7
2019-04-22T02:00:53.093Z,7.6
2019-04-22T02:05:50.266Z,7.5
2019-04-22T02:11:07.030Z,7.4
2019-04-22T02:15:51.782Z,7.3
2019-04-22T02:20:48.139Z,7.3
2019-04-22T02:25:55.872Z,7.2
2019-04-22T02:31:13.648Z,7.2
2019-04-22T02:36:07.833Z,7
2019-04-22T02:46:12.598Z,6.8
2019-04-22T02:55:59.982Z,6.7
2019-04-22T03:06:05.053Z,6.5
2019-04-22T03:20:57.602Z,6.4
2019-04-22T03:36:04.237Z,6.2
2019-04-22T03:41:13.064Z,6.1
2019-04-22T03:45:45.487Z,6.1
2019-04-22T03:51:07.280Z,6
2019-04-22T03:56:01.832Z,6
2019-04-22T04:01:05.407Z,5.9
2019-04-22T04:10:57.364Z,5.8
2019-04-22T04:16:02.695Z,5.8
2019-04-22T04:21:20.390Z,5.8
2019-04-22T04:26:16.384Z,5.8
2019-04-22T04:31:16.841Z,5.8
2019-04-22T04:46:13.611Z,6
2019-04-22T04:51:15.613Z,6.1
2019-04-22T04:56:10.485Z,6.2
2019-04-22T05:01:10.357Z,6.4
2019-04-22T05:06:21.177Z,6.5
2019-04-22T05:11:05.140Z,6.8
2019-04-22T05:21:11.976Z,7.2
2019-04-22T05:26:03.844Z,7.5
2019-04-22T05:31:07.930Z,7.7
2019-04-22T05:36:06.841Z,8
2019-04-22T05:41:02.090Z,8.4
2019-04-22T05:46:02.366Z,8.6
2019-04-22T05:51:00.895Z,9
2019-04-22T05:56:11.943Z,9.3
2019-04-22T06:06:00.315Z,10
2019-04-22T06:11:07.954Z,10.3
2019-04-22T06:16:01.688Z,10.7
2019-04-22T06:21:05.078Z,11
2019-04-22T06:26:09.511Z,11.4
2019-04-22T06:31:10.206Z,11.8
2019-04-22T06:41:08.473Z,12.4
2019-04-22T06:46:07.918Z,12.7
2019-04-22T06:50:59.913Z,13
2019-04-22T06:56:04.379Z,13.4
2019-04-22T07:01:09.062Z,13.8
2019-04-22T07:06:07.219Z,14.1
2019-04-22T07:11:01.286Z,14.3
2019-04-22T07:16:03.445Z,14.6
2019-04-22T07:21:05.797Z,14.8
2019-04-22T07:26:04.087Z,15.1
2019-04-22T07:31:03.686Z,15.3
2019-04-22T07:36:53.170Z,15.5
2019-04-22T07:41:04.726Z,15.7
2019-04-22T07:46:06.668Z,16
2019-04-22T07:51:06.838Z,16.2
2019-04-22T07:56:04.769Z,16.3
2019-04-22T08:01:08.405Z,16.5
2019-04-22T08:11:21.361Z,16.7
2019-04-22T08:16:09.633Z,16.9
2019-04-22T08:21:04.071Z,17.2
2019-04-22T08:26:04.654Z,17.4
2019-04-22T08:31:07.473Z,17.5
2019-04-22T08:41:04.576Z,17.8
2019-04-22T08:46:16.452Z,18
2019-04-22T08:51:08.365Z,18.2
2019-04-22T08:56:14.136Z,18.3
2019-04-22T09:01:11.045Z,18.4
2019-04-22T09:06:10.812Z,18.7
2019-04-22T09:16:10.138Z,18.8
2019-04-22T09:21:12.947Z,19
2019-04-22T09:26:08.486Z,19.1
2019-04-22T09:31:05.609Z,19.2
2019-04-22T09:41:05.221Z,19.2
2019-04-22T09:46:05.989Z,19.4
2019-04-22T09:51:05.237Z,19.5
2019-04-22T09:55:56.590Z,19.6
2019-04-22T10:01:11.897Z,19.5
2019-04-22T10:06:16.275Z,19.7
2019-04-22T10:11:12.565Z,19.8
2019-04-22T10:16:10.246Z,19.9
2019-04-22T10:21:08.236Z,20.1
2019-04-22T10:26:12.783Z,20.2
2019-04-22T10:31:09.357Z,20.3
2019-04-22T10:35:43.454Z,20.4
2019-04-22T10:40:42.775Z,20.5
2019-04-22T10:45:42.156Z,20.6
2019-04-22T10:50:43.004Z,20.7
2019-04-22T10:55:44.943Z,20.9
2019-04-22T11:00:42.296Z,20.9
2019-04-22T11:05:42.152Z,21
2019-04-22T11:10:54.080Z,21.2
2019-04-22T11:15:44.662Z,21.2
2019-04-22T11:20:44.587Z,21.3
2019-04-22T11:25:45.924Z,21.3
2019-04-22T11:30:45.000Z,21.4
2019-04-22T11:35:45.888Z,21.4
2019-04-22T11:40:49.740Z,21.6
2019-04-22T11:45:45.204Z,21.7
2019-04-22T11:50:46.080Z,21.8
2019-04-22T11:55:45.028Z,21.8
2019-04-22T12:00:45.233Z,21.9
2019-04-22T12:05:45.945Z,21.8
2019-04-22T12:10:51.456Z,21.9
2019-04-22T12:15:45.172Z,21.9
2019-04-22T12:20:45.437Z,22
2019-04-22T12:25:52.114Z,22.1
2019-04-22T12:30:45.684Z,22
2019-04-22T12:35:46.388Z,22.1
2019-04-22T12:40:50.974Z,22.1
2019-04-22T12:45:45.205Z,22.1
2019-04-22T12:50:47.750Z,22.1
2019-04-22T12:55:45.991Z,22
2019-04-22T13:00:45.204Z,22.1
2019-04-22T13:05:45.218Z,22.1
2019-04-22T13:10:53.113Z,22.2
2019-04-22T13:15:46.688Z,22.1
2019-04-22T13:20:46.332Z,22.2
2019-04-22T13:25:45.230Z,22.2
2019-04-22T13:30:46.497Z,22.1
2019-04-22T13:35:45.696Z,22.2
2019-04-22T13:41:00.488Z,22.2
2019-04-22T13:45:45.765Z,22.1
2019-04-22T13:51:13.038Z,22.1
2019-04-22T13:56:06.826Z,22
2019-04-22T14:00:46.788Z,21.8
2019-04-22T14:05:46.731Z,21.9
2019-04-22T14:10:45.744Z,21.9
2019-04-22T14:15:46.673Z,21.9
2019-04-22T14:20:46.840Z,21.9
2019-04-22T14:25:46.288Z,22
2019-04-22T14:30:46.366Z,22
2019-04-22T14:35:45.778Z,22.1
2019-04-22T14:40:45.588Z,22.1
2019-04-22T14:46:12.974Z,22.1
2019-04-22T14:51:06.971Z,22
2019-04-22T14:55:46.449Z,21.9
2019-04-22T15:00:45.927Z,21.9
2019-04-22T15:05:46.227Z,21.9
2019-04-22T15:10:46.151Z,21.8
2019-04-22T15:15:47.817Z,21.8
2019-04-22T15:20:48.658Z,21.6
2019-04-22T15:25:46.418Z,21.5
2019-04-22T15:30:45.729Z,21.4
2019-04-22T15:35:45.562Z,21.3
2019-04-22T15:40:46.849Z,21.2
2019-04-22T15:45:46.556Z,21.2
2019-04-22T15:50:46.656Z,21.2
2019-04-22T15:55:46.953Z,21.1
2019-04-22T16:00:56.287Z,21
2019-04-22T16:05:46.107Z,21
2019-04-22T16:10:46.117Z,20.9
2019-04-22T16:15:46.731Z,20.9
2019-04-22T16:20:46.125Z,20.8
2019-04-22T16:25:47.048Z,20.7
2019-04-22T16:30:45.654Z,20.7
2019-04-22T16:35:46.750Z,20.6
2019-04-22T16:40:45.612Z,20.5
2019-04-22T16:45:45.584Z,20.4
2019-04-22T16:50:47.349Z,20.3
2019-04-22T16:55:46.618Z,20.2
2019-04-22T17:00:46.892Z,20.2
2019-04-22T17:05:45.731Z,20.1
2019-04-22T17:10:46.010Z,20
2019-04-22T17:15:47.181Z,19.9
2019-04-22T17:20:46.512Z,20
2019-04-22T17:25:45.618Z,21.1
2019-04-22T17:30:45.759Z,21
2019-04-22T17:35:48.185Z,20.1
2019-04-22T17:41:00.843Z,19.7
2019-04-22T17:46:10.449Z,19.4
2019-04-22T17:51:22.194Z,19.2
2019-04-22T17:56:20.373Z,18.9
2019-04-22T18:01:17.650Z,18.7
2019-04-22T18:06:00.257Z,18.5
2019-04-22T18:11:23.610Z,18.3
2019-04-22T18:16:17.417Z,18.1
2019-04-22T18:21:08.726Z,17.9
2019-04-22T18:26:12.218Z,17.7
2019-04-22T18:31:11.581Z,17.6
2019-04-22T18:36:19.183Z,17.4
2019-04-22T18:41:17.617Z,17.3
2019-04-22T18:46:20.464Z,17.2
2019-04-22T18:51:28.633Z,17.1
2019-04-22T18:56:23.553Z,17
2019-04-22T19:01:03.807Z,16.9
2019-04-22T19:06:33.877Z,16.8
2019-04-22T19:11:20.162Z,16.7
2019-04-22T19:16:30.657Z,16.6
2019-04-22T19:21:19.133Z,16.5
2019-04-22T19:26:35.571Z,16.5
2019-04-22T19:31:24.356Z,16.4
2019-04-22T19:36:25.089Z,16.3
2019-04-22T19:41:23.878Z,16.3
2019-04-22T19:46:22.000Z,16.2
2019-04-22T19:51:27.196Z,16.1
2019-04-22T19:56:17.357Z,16
2019-04-22T20:01:20.215Z,15.9
2019-04-22T20:06:19.365Z,15.9
2019-04-22T20:11:22.524Z,15.8
2019-04-22T20:16:13.313Z,15.7
2019-04-22T20:21:22.073Z,15.7
2019-04-22T20:26:15.641Z,15.6
2019-04-22T20:31:23.297Z,15.5
2019-04-22T20:36:37.647Z,15.4
2019-04-22T20:41:18.631Z,15.3
2019-04-22T20:46:19.973Z,15.2
2019-04-22T20:51:21.990Z,15.1
2019-04-22T20:56:18.464Z,15
2019-04-22T21:01:13.217Z,14.9
2019-04-22T21:06:20.215Z,14.9
2019-04-22T21:11:18.915Z,14.8
2019-04-22T21:16:26.382Z,14.7
2019-04-22T21:21:24.916Z,14.6
2019-04-22T21:26:19.265Z,14.6
2019-04-22T21:31:23.143Z,14.5
2019-04-22T21:41:19.854Z,14.4
2019-04-22T21:46:22.108Z,14.3
2019-04-22T21:51:24.133Z,14.2
2019-04-22T22:01:18.472Z,14.1
2019-04-22T22:06:14.834Z,14
2019-04-22T22:11:23.454Z,14
2019-04-22T22:16:18.696Z,13.9
2019-04-22T22:21:40.457Z,13.9
2019-04-22T22:26:18.385Z,13.8
2019-04-22T22:31:28.397Z,13.7
2019-04-22T22:36:23.222Z,13.7
2019-04-22T22:41:05.764Z,13.6
2019-04-22T22:46:17.585Z,13.6
2019-04-22T22:51:39.321Z,13.5
2019-04-22T22:56:36.654Z,13.5
2019-04-22T23:01:35.654Z,13.4
2019-04-22T23:06:38.138Z,13.4
2019-04-22T23:11:51.753Z,13.3
2019-04-22T23:16:21.895Z,13.3
2019-04-22T23:21:19.088Z,13.2
2019-04-22T23:26:29.560Z,13.2
2019-04-22T23:31:20.604Z,13.1
2019-04-22T23:36:21.454Z,13.1
2019-04-22T23:41:38.739Z,13
2019-04-22T23:46:26.944Z,13
2019-04-22T23:51:24.918Z,12.9
2019-04-22T23:56:24.970Z,12.9
